sensor_id;sensor_type;location;lat;lon;timestamp;P1;durP1;ratioP1;P2;durP2;ratioP2
11541;SDS011;5827;49.482;7.716;2022-10-31T00:00:26;12.35;;;9.48;;
11541;SDS011;5827;49.482;7.716;2022-10-31T00:02:27;12.80;;;9.85;;
11541;SDS011;5827;49.482;7.716;2022-10-31T00:04:29;11.05;;;9.45;;
11541;SDS011;5827;49.482;7.716;2022-10-31T00:06:31;12.23;;;9.13;;
11541;SDS011;5827;49.482;7.716;2022-10-31T00:08:32;11.13;;;9.30;;
11541;SDS011;5827;49.482;7.716;2022-10-31T00:10:36;11.48;;;8.98;;
11541;SDS011;5827;49.482;7.716;2022-10-31T00:12:38;11.60;;;9.80;;
11541;SDS011;5827;49.482;7.716;2022-10-31T00:14:41;13.60;;;9.57;;
11541;SDS011;5827;49.482;7.716;2022-10-31T00:16:43;12.88;;;9.48;;
11541;SDS011;5827;49.482;7.716;2022-10-31T00:18:47;12.48;;;9.80;;
11541;SDS011;5827;49.482;7.716;2022-10-31T00:20:57;12.57;;;9.50;;
11541;SDS011;5827;49.482;7.716;2022-10-31T00:23:00;12.37;;;9.13;;
11541;SDS011;5827;49.482;7.716;2022-10-31T00:25:02;14.98;;;9.60;;
11541;SDS011;5827;49.482;7.716;2022-10-31T00:27:04;12.88;;;9.10;;
11541;SDS011;5827;49.482;7.716;2022-10-31T00:29:06;12.70;;;9.18;;
11541;SDS011;5827;49.482;7.716;2022-10-31T00:31:09;12.63;;;9.07;;
11541;SDS011;5827;49.482;7.716;2022-10-31T00:33:12;11.93;;;8.85;;
11541;SDS011;5827;49.482;7.716;2022-10-31T00:35:13;10.40;;;7.97;;
11541;SDS011;5827;49.482;7.716;2022-10-31T00:37:15;10.98;;;7.85;;
11541;SDS011;5827;49.482;7.716;2022-10-31T00:39:16;9.93;;;8.63;;
11541;SDS011;5827;49.482;7.716;2022-10-31T00:41:18;11.63;;;7.90;;
11541;SDS011;5827;49.482;7.716;2022-10-31T00:43:20;12.13;;;8.05;;
11541;SDS011;5827;49.482;7.716;2022-10-31T00:45:21;9.45;;;8.02;;
11541;SDS011;5827;49.482;7.716;2022-10-31T00:47:24;10.52;;;8.05;;
11541;SDS011;5827;49.482;7.716;2022-10-31T00:49:26;10.68;;;8.43;;
11541;SDS011;5827;49.482;7.716;2022-10-31T00:51:27;13.93;;;8.57;;
11541;SDS011;5827;49.482;7.716;2022-10-31T00:53:29;12.50;;;8.43;;
11541;SDS011;5827;49.482;7.716;2022-10-31T00:55:30;11.73;;;8.18;;
11541;SDS011;5827;49.482;7.716;2022-10-31T00:57:32;12.15;;;8.05;;
11541;SDS011;5827;49.482;7.716;2022-10-31T00:59:33;12.00;;;8.52;;
11541;SDS011;5827;49.482;7.716;2022-10-31T01:01:35;10.55;;;7.90;;
11541;SDS011;5827;49.482;7.716;2022-10-31T01:03:38;12.13;;;9.05;;
11541;SDS011;5827;49.482;7.716;2022-10-31T01:05:39;10.57;;;8.43;;
11541;SDS011;5827;49.482;7.716;2022-10-31T01:07:41;10.05;;;8.25;;
11541;SDS011;5827;49.482;7.716;2022-10-31T01:09:43;11.88;;;9.07;;
11541;SDS011;5827;49.482;7.716;2022-10-31T01:11:44;10.82;;;8.18;;
11541;SDS011;5827;49.482;7.716;2022-10-31T01:13:46;11.00;;;7.50;;
11541;SDS011;5827;49.482;7.716;2022-10-31T01:15:53;10.43;;;7.90;;
11541;SDS011;5827;49.482;7.716;2022-10-31T01:17:55;10.27;;;7.83;;
11541;SDS011;5827;49.482;7.716;2022-10-31T01:19:58;9.77;;;7.78;;
11541;SDS011;5827;49.482;7.716;2022-10-31T01:21:59;10.63;;;7.85;;
11541;SDS011;5827;49.482;7.716;2022-10-31T01:24:01;10.10;;;7.63;;
11541;SDS011;5827;49.482;7.716;2022-10-31T01:26:04;12.00;;;8.18;;
11541;SDS011;5827;49.482;7.716;2022-10-31T01:28:07;11.23;;;8.50;;
11541;SDS011;5827;49.482;7.716;2022-10-31T01:30:09;11.30;;;8.50;;
11541;SDS011;5827;49.482;7.716;2022-10-31T01:32:11;10.82;;;8.02;;
11541;SDS011;5827;49.482;7.716;2022-10-31T01:34:13;11.50;;;8.60;;
11541;SDS011;5827;49.482;7.716;2022-10-31T01:36:19;8.63;;;6.65;;
11541;SDS011;5827;49.482;7.716;2022-10-31T01:38:22;9.93;;;6.68;;
11541;SDS011;5827;49.482;7.716;2022-10-31T01:40:24;8.10;;;6.00;;
11541;SDS011;5827;49.482;7.716;2022-10-31T01:42:29;8.50;;;6.47;;
11541;SDS011;5827;49.482;7.716;2022-10-31T01:44:50;8.65;;;6.60;;
11541;SDS011;5827;49.482;7.716;2022-10-31T01:46:55;6.63;;;6.03;;
11541;SDS011;5827;49.482;7.716;2022-10-31T01:49:00;7.35;;;6.07;;
11541;SDS011;5827;49.482;7.716;2022-10-31T01:51:05;7.53;;;5.97;;
11541;SDS011;5827;49.482;7.716;2022-10-31T01:53:08;7.97;;;6.05;;
11541;SDS011;5827;49.482;7.716;2022-10-31T01:55:13;8.07;;;6.28;;
11541;SDS011;5827;49.482;7.716;2022-10-31T01:57:19;7.18;;;6.47;;
11541;SDS011;5827;49.482;7.716;2022-10-31T01:59:22;8.43;;;6.93;;
11541;SDS011;5827;49.482;7.716;2022-10-31T02:01:27;8.57;;;7.38;;
11541;SDS011;5827;49.482;7.716;2022-10-31T02:03:30;8.32;;;7.10;;
11541;SDS011;5827;49.482;7.716;2022-10-31T02:05:32;8.63;;;7.00;;
11541;SDS011;5827;49.482;7.716;2022-10-31T02:07:36;9.87;;;7.10;;
11541;SDS011;5827;49.482;7.716;2022-10-31T02:09:42;10.48;;;7.80;;
11541;SDS011;5827;49.482;7.716;2022-10-31T02:11:46;9.27;;;7.85;;
11541;SDS011;5827;49.482;7.716;2022-10-31T02:13:47;10.57;;;7.90;;
11541;SDS011;5827;49.482;7.716;2022-10-31T02:15:49;9.80;;;7.25;;
11541;SDS011;5827;49.482;7.716;2022-10-31T02:17:53;11.48;;;7.80;;
11541;SDS011;5827;49.482;7.716;2022-10-31T02:19:57;9.60;;;7.18;;
11541;SDS011;5827;49.482;7.716;2022-10-31T02:22:07;9.07;;;7.55;;
11541;SDS011;5827;49.482;7.716;2022-10-31T02:24:23;8.45;;;7.05;;
11541;SDS011;5827;49.482;7.716;2022-10-31T02:26:48;10.07;;;7.10;;
11541;SDS011;5827;49.482;7.716;2022-10-31T02:29:04;8.68;;;7.50;;
11541;SDS011;5827;49.482;7.716;2022-10-31T02:31:20;10.43;;;7.43;;
11541;SDS011;5827;49.482;7.716;2022-10-31T02:33:30;10.30;;;7.45;;
11541;SDS011;5827;49.482;7.716;2022-10-31T02:35:41;8.43;;;7.47;;
11541;SDS011;5827;49.482;7.716;2022-10-31T02:37:56;9.07;;;7.22;;
11541;SDS011;5827;49.482;7.716;2022-10-31T02:40:04;8.70;;;7.30;;
11541;SDS011;5827;49.482;7.716;2022-10-31T02:42:13;9.85;;;7.03;;
11541;SDS011;5827;49.482;7.716;2022-10-31T02:44:21;8.40;;;6.90;;
11541;SDS011;5827;49.482;7.716;2022-10-31T02:46:32;10.00;;;7.57;;
11541;SDS011;5827;49.482;7.716;2022-10-31T02:48:39;10.05;;;7.13;;
11541;SDS011;5827;49.482;7.716;2022-10-31T02:50:43;9.65;;;6.93;;
11541;SDS011;5827;49.482;7.716;2022-10-31T02:52:50;9.10;;;6.80;;
11541;SDS011;5827;49.482;7.716;2022-10-31T02:54:52;9.57;;;7.70;;
11541;SDS011;5827;49.482;7.716;2022-10-31T02:56:57;11.27;;;8.40;;
11541;SDS011;5827;49.482;7.716;2022-10-31T02:59:01;8.97;;;8.07;;
11541;SDS011;5827;49.482;7.716;2022-10-31T03:01:11;10.38;;;7.53;;
11541;SDS011;5827;49.482;7.716;2022-10-31T03:03:25;10.00;;;7.82;;
11541;SDS011;5827;49.482;7.716;2022-10-31T03:05:37;10.38;;;7.20;;
11541;SDS011;5827;49.482;7.716;2022-10-31T03:07:47;9.77;;;7.67;;
11541;SDS011;5827;49.482;7.716;2022-10-31T03:09:59;8.53;;;7.53;;
11541;SDS011;5827;49.482;7.716;2022-10-31T03:12:13;10.00;;;7.32;;
11541;SDS011;5827;49.482;7.716;2022-10-31T03:14:21;9.73;;;7.40;;
11541;SDS011;5827;49.482;7.716;2022-10-31T03:16:26;9.50;;;8.10;;
11541;SDS011;5827;49.482;7.716;2022-10-31T03:18:38;10.73;;;8.10;;
11541;SDS011;5827;49.482;7.716;2022-10-31T03:20:42;8.97;;;7.60;;
11541;SDS011;5827;49.482;7.716;2022-10-31T03:22:49;9.07;;;7.50;;
11541;SDS011;5827;49.482;7.716;2022-10-31T03:24:50;9.13;;;7.63;;
11541;SDS011;5827;49.482;7.716;2022-10-31T03:26:55;9.20;;;6.95;;
11541;SDS011;5827;49.482;7.716;2022-10-31T03:29:01;9.48;;;6.97;;
11541;SDS011;5827;49.482;7.716;2022-10-31T03:31:05;8.93;;;7.07;;
11541;SDS011;5827;49.482;7.716;2022-10-31T03:33:09;8.25;;;7.10;;
11541;SDS011;5827;49.482;7.716;2022-10-31T03:35:16;9.73;;;6.90;;
11541;SDS011;5827;49.482;7.716;2022-10-31T03:37:20;11.20;;;6.90;;
11541;SDS011;5827;49.482;7.716;2022-10-31T03:39:26;9.38;;;6.90;;
11541;SDS011;5827;49.482;7.716;2022-10-31T03:41:31;10.23;;;6.83;;
11541;SDS011;5827;49.482;7.716;2022-10-31T03:43:37;9.75;;;7.10;;
11541;SDS011;5827;49.482;7.716;2022-10-31T03:45:44;12.18;;;6.95;;
11541;SDS011;5827;49.482;7.716;2022-10-31T03:47:47;8.65;;;7.15;;
11541;SDS011;5827;49.482;7.716;2022-10-31T03:49:49;9.82;;;7.57;;
11541;SDS011;5827;49.482;7.716;2022-10-31T03:51:54;10.00;;;7.13;;
11541;SDS011;5827;49.482;7.716;2022-10-31T03:54:01;9.70;;;7.10;;
11541;SDS011;5827;49.482;7.716;2022-10-31T03:56:09;9.15;;;6.82;;
11541;SDS011;5827;49.482;7.716;2022-10-31T03:58:17;9.48;;;6.95;;
11541;SDS011;5827;49.482;7.716;2022-10-31T04:00:23;13.00;;;7.20;;
11541;SDS011;5827;49.482;7.716;2022-10-31T04:02:26;7.93;;;6.57;;
11541;SDS011;5827;49.482;7.716;2022-10-31T04:04:31;10.07;;;7.20;;
11541;SDS011;5827;49.482;7.716;2022-10-31T04:06:35;10.45;;;7.53;;
11541;SDS011;5827;49.482;7.716;2022-10-31T04:08:41;9.60;;;6.90;;
11541;SDS011;5827;49.482;7.716;2022-10-31T04:10:47;10.18;;;6.93;;
11541;SDS011;5827;49.482;7.716;2022-10-31T04:12:52;8.00;;;6.40;;
11541;SDS011;5827;49.482;7.716;2022-10-31T04:14:59;9.00;;;7.00;;
11541;SDS011;5827;49.482;7.716;2022-10-31T04:17:03;9.63;;;6.68;;
11541;SDS011;5827;49.482;7.716;2022-10-31T04:19:08;9.65;;;7.15;;
11541;SDS011;5827;49.482;7.716;2022-10-31T04:21:10;8.88;;;6.75;;
11541;SDS011;5827;49.482;7.716;2022-10-31T04:23:13;10.10;;;6.70;;
11541;SDS011;5827;49.482;7.716;2022-10-31T04:25:21;8.00;;;6.85;;
11541;SDS011;5827;49.482;7.716;2022-10-31T04:27:22;9.23;;;6.90;;
11541;SDS011;5827;49.482;7.716;2022-10-31T04:29:24;9.43;;;7.13;;
11541;SDS011;5827;49.482;7.716;2022-10-31T04:31:26;9.45;;;6.95;;
11541;SDS011;5827;49.482;7.716;2022-10-31T04:33:27;10.07;;;6.70;;
11541;SDS011;5827;49.482;7.716;2022-10-31T04:35:29;9.98;;;6.72;;
11541;SDS011;5827;49.482;7.716;2022-10-31T04:37:31;11.40;;;6.65;;
11541;SDS011;5827;49.482;7.716;2022-10-31T04:39:32;9.10;;;6.82;;
11541;SDS011;5827;49.482;7.716;2022-10-31T04:41:35;8.43;;;7.03;;
11541;SDS011;5827;49.482;7.716;2022-10-31T04:43:37;8.70;;;6.70;;
11541;SDS011;5827;49.482;7.716;2022-10-31T04:45:38;11.35;;;7.10;;
11541;SDS011;5827;49.482;7.716;2022-10-31T04:47:40;10.50;;;7.22;;
11541;SDS011;5827;49.482;7.716;2022-10-31T04:49:41;9.82;;;7.00;;
11541;SDS011;5827;49.482;7.716;2022-10-31T04:51:43;12.00;;;7.47;;
11541;SDS011;5827;49.482;7.716;2022-10-31T04:53:44;11.98;;;7.20;;
11541;SDS011;5827;49.482;7.716;2022-10-31T04:55:46;9.00;;;6.90;;
11541;SDS011;5827;49.482;7.716;2022-10-31T04:57:49;10.10;;;7.20;;
11541;SDS011;5827;49.482;7.716;2022-10-31T04:59:51;10.10;;;7.18;;
11541;SDS011;5827;49.482;7.716;2022-10-31T05:01:52;9.43;;;6.68;;
11541;SDS011;5827;49.482;7.716;2022-10-31T05:03:54;11.00;;;6.50;;
11541;SDS011;5827;49.482;7.716;2022-10-31T05:05:55;11.60;;;6.90;;
11541;SDS011;5827;49.482;7.716;2022-10-31T05:07:57;9.05;;;7.00;;
11541;SDS011;5827;49.482;7.716;2022-10-31T05:09:58;9.80;;;6.72;;
11541;SDS011;5827;49.482;7.716;2022-10-31T05:12:00;7.47;;;6.63;;
11541;SDS011;5827;49.482;7.716;2022-10-31T05:14:03;10.25;;;6.60;;
11541;SDS011;5827;49.482;7.716;2022-10-31T05:16:05;9.85;;;6.63;;
11541;SDS011;5827;49.482;7.716;2022-10-31T05:18:06;10.77;;;6.67;;
11541;SDS011;5827;49.482;7.716;2022-10-31T05:20:08;8.45;;;6.22;;
11541;SDS011;5827;49.482;7.716;2022-10-31T05:22:10;9.77;;;6.32;;
11541;SDS011;5827;49.482;7.716;2022-10-31T05:24:12;9.73;;;6.40;;
11541;SDS011;5827;49.482;7.716;2022-10-31T05:26:13;8.30;;;6.13;;
11541;SDS011;5827;49.482;7.716;2022-10-31T05:28:15;11.60;;;6.45;;
11541;SDS011;5827;49.482;7.716;2022-10-31T05:30:19;8.40;;;6.07;;
11541;SDS011;5827;49.482;7.716;2022-10-31T05:32:21;8.40;;;6.30;;
11541;SDS011;5827;49.482;7.716;2022-10-31T05:34:23;8.85;;;6.57;;
11541;SDS011;5827;49.482;7.716;2022-10-31T05:36:25;11.15;;;6.80;;
11541;SDS011;5827;49.482;7.716;2022-10-31T05:38:26;7.40;;;6.60;;
11541;SDS011;5827;49.482;7.716;2022-10-31T05:40:28;9.05;;;6.18;;
11541;SDS011;5827;49.482;7.716;2022-10-31T05:42:29;9.68;;;6.28;;
11541;SDS011;5827;49.482;7.716;2022-10-31T05:44:31;6.82;;;5.90;;
11541;SDS011;5827;49.482;7.716;2022-10-31T05:46:34;7.50;;;6.22;;
11541;SDS011;5827;49.482;7.716;2022-10-31T05:48:35;9.73;;;6.38;;
11541;SDS011;5827;49.482;7.716;2022-10-31T05:50:37;8.77;;;6.63;;
11541;SDS011;5827;49.482;7.716;2022-10-31T05:52:38;8.32;;;6.13;;
11541;SDS011;5827;49.482;7.716;2022-10-31T05:54:40;8.55;;;7.35;;
11541;SDS011;5827;49.482;7.716;2022-10-31T05:56:41;8.45;;;7.65;;
11541;SDS011;5827;49.482;7.716;2022-10-31T05:58:43;9.75;;;7.72;;
11541;SDS011;5827;49.482;7.716;2022-10-31T06:00:45;8.25;;;6.95;;
11541;SDS011;5827;49.482;7.716;2022-10-31T06:02:48;7.20;;;6.50;;
11541;SDS011;5827;49.482;7.716;2022-10-31T06:04:50;7.85;;;6.95;;
11541;SDS011;5827;49.482;7.716;2022-10-31T06:06:51;8.50;;;6.70;;
11541;SDS011;5827;49.482;7.716;2022-10-31T06:08:53;7.93;;;7.10;;
11541;SDS011;5827;49.482;7.716;2022-10-31T06:10:55;9.30;;;6.65;;
11541;SDS011;5827;49.482;7.716;2022-10-31T06:12:56;11.47;;;6.60;;
11541;SDS011;5827;49.482;7.716;2022-10-31T06:14:58;7.70;;;6.43;;
11541;SDS011;5827;49.482;7.716;2022-10-31T06:16:59;7.30;;;6.60;;
11541;SDS011;5827;49.482;7.716;2022-10-31T06:19:02;7.60;;;6.40;;
11541;SDS011;5827;49.482;7.716;2022-10-31T06:21:04;8.75;;;6.50;;
11541;SDS011;5827;49.482;7.716;2022-10-31T06:23:05;8.88;;;7.05;;
11541;SDS011;5827;49.482;7.716;2022-10-31T06:25:07;8.00;;;7.18;;
11541;SDS011;5827;49.482;7.716;2022-10-31T06:27:09;8.45;;;7.07;;
11541;SDS011;5827;49.482;7.716;2022-10-31T06:29:10;8.32;;;7.53;;
11541;SDS011;5827;49.482;7.716;2022-10-31T06:31:12;10.18;;;8.02;;
11541;SDS011;5827;49.482;7.716;2022-10-31T06:33:13;8.93;;;8.00;;
11541;SDS011;5827;49.482;7.716;2022-10-31T06:35:16;9.50;;;8.43;;
11541;SDS011;5827;49.482;7.716;2022-10-31T06:37:18;10.43;;;8.55;;
11541;SDS011;5827;49.482;7.716;2022-10-31T06:39:20;9.90;;;7.82;;
11541;SDS011;5827;49.482;7.716;2022-10-31T06:41:21;10.27;;;8.52;;
11541;SDS011;5827;49.482;7.716;2022-10-31T06:43:23;9.50;;;8.30;;
11541;SDS011;5827;49.482;7.716;2022-10-31T06:45:24;10.70;;;8.48;;
11541;SDS011;5827;49.482;7.716;2022-10-31T06:47:26;10.13;;;8.65;;
11541;SDS011;5827;49.482;7.716;2022-10-31T06:49:28;11.25;;;8.63;;
11541;SDS011;5827;49.482;7.716;2022-10-31T06:51:31;10.00;;;8.75;;
11541;SDS011;5827;49.482;7.716;2022-10-31T06:53:32;11.15;;;8.50;;
11541;SDS011;5827;49.482;7.716;2022-10-31T06:55:34;10.35;;;8.18;;
11541;SDS011;5827;49.482;7.716;2022-10-31T06:57:35;10.38;;;9.07;;
11541;SDS011;5827;49.482;7.716;2022-10-31T06:59:37;9.60;;;8.38;;
11541;SDS011;5827;49.482;7.716;2022-10-31T07:01:38;10.27;;;8.40;;
11541;SDS011;5827;49.482;7.716;2022-10-31T07:03:40;11.43;;;8.60;;
11541;SDS011;5827;49.482;7.716;2022-10-31T07:05:42;10.95;;;8.13;;
11541;SDS011;5827;49.482;7.716;2022-10-31T07:07:45;9.82;;;8.27;;
11541;SDS011;5827;49.482;7.716;2022-10-31T07:09:46;10.85;;;8.10;;
11541;SDS011;5827;49.482;7.716;2022-10-31T07:11:48;10.85;;;8.68;;
11541;SDS011;5827;49.482;7.716;2022-10-31T07:13:52;8.75;;;7.85;;
11541;SDS011;5827;49.482;7.716;2022-10-31T07:15:54;13.48;;;8.00;;
11541;SDS011;5827;49.482;7.716;2022-10-31T07:18:00;10.25;;;7.78;;
11541;SDS011;5827;49.482;7.716;2022-10-31T07:20:02;9.40;;;7.80;;
11541;SDS011;5827;49.482;7.716;2022-10-31T07:22:04;8.85;;;7.32;;
11541;SDS011;5827;49.482;7.716;2022-10-31T07:24:07;11.70;;;7.25;;
11541;SDS011;5827;49.482;7.716;2022-10-31T07:26:09;9.82;;;7.07;;
11541;SDS011;5827;49.482;7.716;2022-10-31T07:28:11;13.18;;;7.85;;
11541;SDS011;5827;49.482;7.716;2022-10-31T07:30:13;9.82;;;7.38;;
11541;SDS011;5827;49.482;7.716;2022-10-31T07:32:16;10.97;;;7.33;;
11541;SDS011;5827;49.482;7.716;2022-10-31T07:34:18;12.88;;;7.90;;
11541;SDS011;5827;49.482;7.716;2022-10-31T07:36:20;9.13;;;7.22;;
11541;SDS011;5827;49.482;7.716;2022-10-31T07:38:21;9.70;;;7.53;;
11541;SDS011;5827;49.482;7.716;2022-10-31T07:40:24;9.88;;;7.57;;
11541;SDS011;5827;49.482;7.716;2022-10-31T07:42:26;11.48;;;7.63;;
11541;SDS011;5827;49.482;7.716;2022-10-31T07:44:28;11.07;;;7.55;;
11541;SDS011;5827;49.482;7.716;2022-10-31T07:46:29;8.60;;;7.70;;
11541;SDS011;5827;49.482;7.716;2022-10-31T07:48:31;9.05;;;8.15;;
11541;SDS011;5827;49.482;7.716;2022-10-31T07:50:32;10.90;;;8.10;;
11541;SDS011;5827;49.482;7.716;2022-10-31T07:52:34;11.50;;;8.37;;
11541;SDS011;5827;49.482;7.716;2022-10-31T07:54:36;10.52;;;8.15;;
11541;SDS011;5827;49.482;7.716;2022-10-31T07:56:39;11.57;;;8.45;;
11541;SDS011;5827;49.482;7.716;2022-10-31T07:58:40;8.98;;;7.90;;
11541;SDS011;5827;49.482;7.716;2022-10-31T08:00:42;10.33;;;8.27;;
11541;SDS011;5827;49.482;7.716;2022-10-31T08:02:45;12.65;;;8.60;;
11541;SDS011;5827;49.482;7.716;2022-10-31T08:04:47;10.90;;;8.30;;
11541;SDS011;5827;49.482;7.716;2022-10-31T08:06:48;12.88;;;8.50;;
11541;SDS011;5827;49.482;7.716;2022-10-31T08:08:50;13.15;;;8.10;;
11541;SDS011;5827;49.482;7.716;2022-10-31T08:10:51;9.68;;;7.38;;
11541;SDS011;5827;49.482;7.716;2022-10-31T08:12:58;8.52;;;7.55;;
11541;SDS011;5827;49.482;7.716;2022-10-31T08:15:01;10.43;;;7.20;;
11541;SDS011;5827;49.482;7.716;2022-10-31T08:17:02;9.20;;;7.65;;
11541;SDS011;5827;49.482;7.716;2022-10-31T08:19:04;12.00;;;8.57;;
11541;SDS011;5827;49.482;7.716;2022-10-31T08:21:05;11.05;;;7.60;;
11541;SDS011;5827;49.482;7.716;2022-10-31T08:23:08;11.30;;;7.30;;
11541;SDS011;5827;49.482;7.716;2022-10-31T08:25:10;12.60;;;7.68;;
11541;SDS011;5827;49.482;7.716;2022-10-31T08:27:12;11.98;;;8.05;;
11541;SDS011;5827;49.482;7.716;2022-10-31T08:29:15;12.80;;;7.78;;
11541;SDS011;5827;49.482;7.716;2022-10-31T08:31:16;9.45;;;8.15;;
11541;SDS011;5827;49.482;7.716;2022-10-31T08:33:18;10.80;;;7.60;;
11541;SDS011;5827;49.482;7.716;2022-10-31T08:35:19;9.82;;;7.93;;
11541;SDS011;5827;49.482;7.716;2022-10-31T08:37:21;9.45;;;7.28;;
11541;SDS011;5827;49.482;7.716;2022-10-31T08:39:23;9.48;;;7.00;;
11541;SDS011;5827;49.482;7.716;2022-10-31T08:41:24;7.63;;;6.82;;
11541;SDS011;5827;49.482;7.716;2022-10-31T08:43:26;12.80;;;7.15;;
11541;SDS011;5827;49.482;7.716;2022-10-31T08:45:29;10.57;;;6.85;;
11541;SDS011;5827;49.482;7.716;2022-10-31T08:47:31;14.10;;;7.40;;
11541;SDS011;5827;49.482;7.716;2022-10-31T08:49:33;12.00;;;7.15;;
11541;SDS011;5827;49.482;7.716;2022-10-31T08:51:35;8.63;;;7.25;;
11541;SDS011;5827;49.482;7.716;2022-10-31T08:53:37;9.27;;;6.85;;
11541;SDS011;5827;49.482;7.716;2022-10-31T08:55:39;11.13;;;7.45;;
11541;SDS011;5827;49.482;7.716;2022-10-31T08:57:42;11.10;;;7.20;;
11541;SDS011;5827;49.482;7.716;2022-10-31T08:59:43;13.38;;;7.05;;
11541;SDS011;5827;49.482;7.716;2022-10-31T09:01:46;11.05;;;7.22;;
11541;SDS011;5827;49.482;7.716;2022-10-31T09:03:48;11.73;;;7.35;;
11541;SDS011;5827;49.482;7.716;2022-10-31T09:05:49;11.32;;;7.18;;
11541;SDS011;5827;49.482;7.716;2022-10-31T09:07:54;11.15;;;7.00;;
11541;SDS011;5827;49.482;7.716;2022-10-31T09:09:57;9.20;;;6.82;;
11541;SDS011;5827;49.482;7.716;2022-10-31T09:11:58;9.23;;;6.60;;
11541;SDS011;5827;49.482;7.716;2022-10-31T09:14:00;12.50;;;7.50;;
11541;SDS011;5827;49.482;7.716;2022-10-31T09:16:01;10.57;;;6.53;;
11541;SDS011;5827;49.482;7.716;2022-10-31T09:18:04;11.02;;;7.07;;
11541;SDS011;5827;49.482;7.716;2022-10-31T09:20:07;10.68;;;7.07;;
11541;SDS011;5827;49.482;7.716;2022-10-31T09:22:09;11.70;;;7.27;;
11541;SDS011;5827;49.482;7.716;2022-10-31T09:24:11;10.85;;;7.15;;
11541;SDS011;5827;49.482;7.716;2022-10-31T09:26:12;9.93;;;7.25;;
11541;SDS011;5827;49.482;7.716;2022-10-31T09:28:14;12.80;;;8.13;;
11541;SDS011;5827;49.482;7.716;2022-10-31T09:30:17;12.82;;;8.10;;
11541;SDS011;5827;49.482;7.716;2022-10-31T09:32:19;13.38;;;7.57;;
11541;SDS011;5827;49.482;7.716;2022-10-31T09:34:22;11.25;;;7.70;;
11541;SDS011;5827;49.482;7.716;2022-10-31T09:36:23;12.55;;;7.70;;
11541;SDS011;5827;49.482;7.716;2022-10-31T09:38:25;9.90;;;7.47;;
11541;SDS011;5827;49.482;7.716;2022-10-31T09:40:34;11.18;;;7.95;;
11541;SDS011;5827;49.482;7.716;2022-10-31T09:42:40;10.15;;;7.60;;
11541;SDS011;5827;49.482;7.716;2022-10-31T09:44:56;10.10;;;7.28;;
11541;SDS011;5827;49.482;7.716;2022-10-31T09:47:05;10.07;;;6.95;;
11541;SDS011;5827;49.482;7.716;2022-10-31T09:49:24;9.93;;;6.77;;
11541;SDS011;5827;49.482;7.716;2022-10-31T09:51:38;9.80;;;6.90;;
11541;SDS011;5827;49.482;7.716;2022-10-31T09:53:43;10.63;;;6.57;;
11541;SDS011;5827;49.482;7.716;2022-10-31T09:55:49;11.85;;;7.07;;
11541;SDS011;5827;49.482;7.716;2022-10-31T09:57:52;9.15;;;6.50;;
11541;SDS011;5827;49.482;7.716;2022-10-31T09:59:54;11.48;;;6.72;;
11541;SDS011;5827;49.482;7.716;2022-10-31T10:01:58;11.00;;;6.95;;
11541;SDS011;5827;49.482;7.716;2022-10-31T10:04:03;10.25;;;6.80;;
11541;SDS011;5827;49.482;7.716;2022-10-31T10:06:21;8.73;;;7.00;;
11541;SDS011;5827;49.482;7.716;2022-10-31T10:08:26;9.70;;;6.77;;
11541;SDS011;5827;49.482;7.716;2022-10-31T10:10:36;9.13;;;6.15;;
11541;SDS011;5827;49.482;7.716;2022-10-31T10:12:59;10.53;;;6.80;;
11541;SDS011;5827;49.482;7.716;2022-10-31T10:15:16;10.75;;;6.38;;
11541;SDS011;5827;49.482;7.716;2022-10-31T10:17:37;10.50;;;6.40;;
11541;SDS011;5827;49.482;7.716;2022-10-31T10:19:56;10.93;;;6.32;;
11541;SDS011;5827;49.482;7.716;2022-10-31T10:22:12;11.05;;;6.35;;
11541;SDS011;5827;49.482;7.716;2022-10-31T10:24:24;8.45;;;6.45;;
11541;SDS011;5827;49.482;7.716;2022-10-31T10:26:34;8.85;;;6.15;;
11541;SDS011;5827;49.482;7.716;2022-10-31T10:28:38;10.40;;;6.50;;
11541;SDS011;5827;49.482;7.716;2022-10-31T10:30:43;7.70;;;6.00;;
11541;SDS011;5827;49.482;7.716;2022-10-31T10:32:48;9.80;;;5.53;;
11541;SDS011;5827;49.482;7.716;2022-10-31T10:34:53;9.45;;;5.72;;
11541;SDS011;5827;49.482;7.716;2022-10-31T10:37:00;8.15;;;5.65;;
11541;SDS011;5827;49.482;7.716;2022-10-31T10:39:11;9.55;;;5.72;;
11541;SDS011;5827;49.482;7.716;2022-10-31T10:41:17;11.35;;;5.95;;
11541;SDS011;5827;49.482;7.716;2022-10-31T10:43:22;10.43;;;7.63;;
11541;SDS011;5827;49.482;7.716;2022-10-31T10:45:24;9.77;;;6.20;;
11541;SDS011;5827;49.482;7.716;2022-10-31T10:47:44;10.57;;;5.95;;
11541;SDS011;5827;49.482;7.716;2022-10-31T10:49:52;8.93;;;5.85;;
11541;SDS011;5827;49.482;7.716;2022-10-31T10:51:55;9.77;;;6.15;;
11541;SDS011;5827;49.482;7.716;2022-10-31T10:54:05;9.88;;;6.20;;
11541;SDS011;5827;49.482;7.716;2022-10-31T10:56:35;12.23;;;6.13;;
11541;SDS011;5827;49.482;7.716;2022-10-31T10:58:41;7.40;;;5.60;;
11541;SDS011;5827;49.482;7.716;2022-10-31T11:00:45;8.65;;;5.88;;
11541;SDS011;5827;49.482;7.716;2022-10-31T11:02:49;11.30;;;6.03;;
11541;SDS011;5827;49.482;7.716;2022-10-31T11:04:52;8.63;;;5.68;;
11541;SDS011;5827;49.482;7.716;2022-10-31T11:06:58;10.63;;;6.30;;
11541;SDS011;5827;49.482;7.716;2022-10-31T11:09:08;12.90;;;6.25;;
11541;SDS011;5827;49.482;7.716;2022-10-31T11:11:14;10.60;;;5.88;;
11541;SDS011;5827;49.482;7.716;2022-10-31T11:13:25;11.60;;;6.00;;
11541;SDS011;5827;49.482;7.716;2022-10-31T11:15:28;8.87;;;5.50;;
11541;SDS011;5827;49.482;7.716;2022-10-31T11:17:33;9.43;;;5.60;;
11541;SDS011;5827;49.482;7.716;2022-10-31T11:19:38;9.10;;;5.67;;
11541;SDS011;5827;49.482;7.716;2022-10-31T11:21:40;8.63;;;5.70;;
11541;SDS011;5827;49.482;7.716;2022-10-31T11:23:44;8.50;;;6.05;;
11541;SDS011;5827;49.482;7.716;2022-10-31T11:25:49;10.93;;;5.85;;
11541;SDS011;5827;49.482;7.716;2022-10-31T11:28:01;11.60;;;6.05;;
11541;SDS011;5827;49.482;7.716;2022-10-31T11:30:04;10.63;;;5.95;;
11541;SDS011;5827;49.482;7.716;2022-10-31T11:32:08;11.07;;;5.97;;
11541;SDS011;5827;49.482;7.716;2022-10-31T11:34:26;9.27;;;5.78;;
11541;SDS011;5827;49.482;7.716;2022-10-31T11:36:30;8.25;;;5.50;;
11541;SDS011;5827;49.482;7.716;2022-10-31T11:38:35;8.73;;;5.57;;
11541;SDS011;5827;49.482;7.716;2022-10-31T11:40:45;7.68;;;5.70;;
11541;SDS011;5827;49.482;7.716;2022-10-31T11:42:54;9.50;;;5.85;;
11541;SDS011;5827;49.482;7.716;2022-10-31T11:45:01;9.63;;;5.53;;
11541;SDS011;5827;49.482;7.716;2022-10-31T11:47:10;8.80;;;5.40;;
11541;SDS011;5827;49.482;7.716;2022-10-31T11:49:15;10.07;;;5.53;;
11541;SDS011;5827;49.482;7.716;2022-10-31T11:51:20;8.70;;;5.78;;
11541;SDS011;5827;49.482;7.716;2022-10-31T11:53:25;10.00;;;5.50;;
11541;SDS011;5827;49.482;7.716;2022-10-31T11:55:30;9.95;;;5.45;;
11541;SDS011;5827;49.482;7.716;2022-10-31T11:57:33;9.80;;;5.40;;
11541;SDS011;5827;49.482;7.716;2022-10-31T11:59:50;8.45;;;5.10;;
11541;SDS011;5827;49.482;7.716;2022-10-31T12:01:55;13.10;;;5.70;;
11541;SDS011;5827;49.482;7.716;2022-10-31T12:03:59;9.32;;;5.32;;
11541;SDS011;5827;49.482;7.716;2022-10-31T12:06:07;10.23;;;5.60;;
11541;SDS011;5827;49.482;7.716;2022-10-31T12:08:13;11.50;;;5.78;;
11541;SDS011;5827;49.482;7.716;2022-10-31T12:10:15;10.65;;;5.10;;
11541;SDS011;5827;49.482;7.716;2022-10-31T12:14:48;8.43;;;5.30;;
11541;SDS011;5827;49.482;7.716;2022-10-31T12:17:01;10.43;;;5.20;;
11541;SDS011;5827;49.482;7.716;2022-10-31T12:19:09;9.75;;;5.13;;
11541;SDS011;5827;49.482;7.716;2022-10-31T12:21:22;8.43;;;5.10;;
11541;SDS011;5827;49.482;7.716;2022-10-31T12:23:45;8.17;;;4.80;;
11541;SDS011;5827;49.482;7.716;2022-10-31T12:28:29;9.30;;;5.25;;
11541;SDS011;5827;49.482;7.716;2022-10-31T12:30:50;10.63;;;5.50;;
11541;SDS011;5827;49.482;7.716;2022-10-31T12:33:25;11.33;;;5.63;;
11541;SDS011;5827;49.482;7.716;2022-10-31T12:35:45;9.15;;;5.00;;
11541;SDS011;5827;49.482;7.716;2022-10-31T12:37:56;9.77;;;5.07;;
11541;SDS011;5827;49.482;7.716;2022-10-31T12:40:18;9.40;;;5.18;;
11541;SDS011;5827;49.482;7.716;2022-10-31T12:42:36;8.88;;;5.00;;